地図

経路データ

SID SEASON NUMBER BASIN SUBBASIN NAME ISO_TIME NATURE LAT LON WMO_WIND WMO_PRES WMO_AGENCY TRACK_TYPE DIST2LAND LANDFALL IFLAG USA_AGENCY USA_ATCF_ID USA_LAT USA_LON USA_RECORD USA_STATUS USA_WIND USA_PRES USA_SSHS USA_R34_NE USA_R34_SE USA_R34_SW USA_R34_NW USA_R50_NE USA_R50_SE USA_R50_SW USA_R50_NW USA_R64_NE USA_R64_SE USA_R64_SW USA_R64_NW USA_POCI USA_ROCI USA_RMW USA_EYE TOKYO_LAT TOKYO_LON TOKYO_GRADE TOKYO_WIND TOKYO_PRES TOKYO_R50_DIR TOKYO_R50_LONG TOKYO_R50_SHORT TOKYO_R30_DIR TOKYO_R30_LONG TOKYO_R30_SHORT TOKYO_LAND CMA_LAT CMA_LON CMA_CAT CMA_WIND CMA_PRES HKO_LAT HKO_LON HKO_CAT HKO_WIND HKO_PRES NEWDELHI_LAT NEWDELHI_LON NEWDELHI_GRADE NEWDELHI_WIND NEWDELHI_PRES NEWDELHI_CI NEWDELHI_DP NEWDELHI_POCI REUNION_LAT REUNION_LON REUNION_TYPE REUNION_WIND REUNION_PRES REUNION_TNUM REUNION_CI REUNION_RMW REUNION_R34_NE REUNION_R34_SE REUNION_R34_SW REUNION_R34_NW REUNION_R50_NE REUNION_R50_SE REUNION_R50_SW REUNION_R50_NW REUNION_R64_NE REUNION_R64_SE REUNION_R64_SW REUNION_R64_NW BOM_LAT BOM_LON BOM_TYPE BOM_WIND BOM_PRES BOM_TNUM BOM_CI BOM_RMW BOM_R34_NE BOM_R34_SE BOM_R34_SW BOM_R34_NW BOM_R50_NE BOM_R50_SE BOM_R50_SW BOM_R50_NW BOM_R64_NE BOM_R64_SE BOM_R64_SW BOM_R64_NW BOM_ROCI BOM_POCI BOM_EYE BOM_POS_METHOD BOM_PRES_METHOD NADI_LAT NADI_LON NADI_CAT NADI_WIND NADI_PRES WELLINGTON_LAT WELLINGTON_LON WELLINGTON_WIND WELLINGTON_PRES DS824_LAT DS824_LON DS824_STAGE DS824_WIND DS824_PRES TD9636_LAT TD9636_LON TD9636_STAGE TD9636_WIND TD9636_PRES TD9635_LAT TD9635_LON TD9635_WIND TD9635_PRES TD9635_ROCI NEUMANN_LAT NEUMANN_LON NEUMANN_CLASS NEUMANN_WIND NEUMANN_PRES MLC_LAT MLC_LON MLC_CLASS MLC_WIND MLC_PRES USA_GUST BOM_GUST BOM_GUST_PER REUNION_GUST REUNION_GUST_PER USA_SEAHGT USA_SEARAD_NE USA_SEARAD_SE USA_SEARAD_SW USA_SEARAD_NW STORM_SPEED STORM_DIR
1988187N23133 1988 33 WP MM NOT_NAMED 1988-07-05 00:00:00 TS 23.0000 133.300 main 929 926 __O___________ -1 23.0000 133.300 0 19 1005 14 234
1988187N23133 1988 33 WP MM NOT_NAMED 1988-07-05 03:00:00 TS 22.5875 132.687 main 958 958 __P___________ -1 22.5875 132.687 0 19 1004 14 236
1988187N23133 1988 33 WP MM NOT_NAMED 1988-07-05 06:00:00 TS 22.2000 132.000 main 991 990 __O___________ -1 22.2000 132.000 0 19 1004 15 243
1988187N23133 1988 33 WP MM NOT_NAMED 1988-07-05 09:00:00 TS 21.8880 131.212 main 993 929 __P___________ -1 21.8880 131.212 0 24 1003 14 254
1988187N23133 1988 33 WP MM NOT_NAMED 1988-07-05 12:00:00 TS 21.8000 130.500 main 929 872 __O___________ -1 21.8000 130.500 1 29 1002 12 278
1988187N23133 1988 33 WP MM NOT_NAMED 1988-07-05 15:00:00 TS 22.0522 129.966 main 869 825 __P___________ -1 22.0522 129.966 1 29 1002 10 313
1988187N23133 1988 33 WP MM NOT_NAMED 1988-07-05 18:00:00 TS 22.5000 129.700 main 825 810 __O___________ -1 22.5000 129.700 1 29 1002 10 347
1988187N23133 1988 33 WP MM NOT_NAMED 1988-07-05 21:00:00 TS 23.0321 129.714 main 810 808 __P___________ -1 23.0321 129.714 1 29 1002 9 17
1988187N23133 1988 33 WP MM NOT_NAMED 1988-07-06 00:00:00 TS 23.4000 130.000 main 830 830 __O___________ -1 23.4000 130.000 1 29 1002 9 70
1988187N23133 1988 33 WP MM NOT_NAMED 1988-07-06 03:00:00 TS 23.3207 130.599 main 859 859 __P___________ -1 23.3207 130.599 1 29 1001 10 114
1988187N23133 1988 33 WP MM NOT_NAMED 1988-07-06 06:00:00 TS 23.0000 131.000 main 893 893 __O___________ -1 23.0000 131.000 1 29 1000 7 175
1988187N23133 1988 33 WP MM NOT_NAMED 1988-07-06 09:00:00 TS 22.6124 130.679 main 921 861 __P___________ -1 22.6124 130.679 1 29 1000 12 233
1988187N23133 1988 33 WP MM NOT_NAMED 1988-07-06 12:00:00 TS 22.3000 130.000 main 861 803 __O___________ -1 22.3000 130.000 1 29 1000 13 254
1988187N23133 1988 33 WP MM NOT_NAMED 1988-07-06 15:00:00 TS 22.2673 129.345 main 793 722 __P___________ -1 22.2673 129.345 1 29 1000 13 274
1988187N23133 1988 33 WP MM NOT_NAMED 1988-07-06 18:00:00 TS 22.4000 128.600 main 722 637 __O___________ -1 22.4000 128.600 1 29 1000 15 284
1988187N23133 1988 33 WP MM NOT_NAMED 1988-07-06 21:00:00 TS 22.6152 127.786 main 637 552 __P___________ -1 22.6152 127.786 1 29 1000 15 285
1988187N23133 1988 33 WP MM NOT_NAMED 1988-07-07 00:00:00 TS 22.8000 127.000 main 552 495 __O___________ -1 22.8000 127.000 1 29 1000 13 278
1988187N23133 1988 33 WP MM NOT_NAMED 1988-07-07 03:00:00 TS 22.7946 126.347 main 486 445 __P___________ -1 22.7946 126.347 1 29 1000 11 265
1988187N23133 1988 33 WP MM NOT_NAMED 1988-07-07 06:00:00 TS 22.7000 125.800 main 445 403 __O___________ -1 22.7000 125.800 1 29 1000 10 258
1988187N23133 1988 33 WP MM NOT_NAMED 1988-07-07 09:00:00 TS 22.5923 125.312 main 403 364 __P___________ -1 22.5923 125.312 1 29 1000 9 256
1988187N23133 1988 33 WP MM NOT_NAMED 1988-07-07 12:00:00 TS 22.5000 124.900 main 364 334 __O___________ -1 22.5000 124.900 1 29 1000 7 260
1988187N23133 1988 33 WP MM NOT_NAMED 1988-07-07 15:00:00 TS 22.4698 124.535 main 324 294 __P___________ -1 22.4698 124.535 1 29 1000 6 270
1988187N23133 1988 33 WP MM NOT_NAMED 1988-07-07 18:00:00 TS 22.5000 124.200 main 294 262 __O___________ -1 22.5000 124.200 1 29 1000 7 283
1988187N23133 1988 33 WP MM NOT_NAMED 1988-07-07 21:00:00 TS 22.6150 123.835 main 252 219 __P___________ -1 22.6150 123.835 1 29 1000 7 287
1988187N23133 1988 33 WP MM NOT_NAMED 1988-07-08 00:00:00 TS 22.7000 123.500 main 219 192 __O___________ -1 22.7000 123.500 1 29 1000 6 270
1988187N23133 1988 33 WP MM NOT_NAMED 1988-07-08 03:00:00 TS 22.6150 123.197 main 192 177 __P___________ -1 22.6150 123.197 1 29 1000 5 247
1988187N23133 1988 33 WP MM NOT_NAMED 1988-07-08 06:00:00 TS 22.5000 123.000 main 177 177 __O___________ -1 22.5000 123.000 1 29 1000 2 240
1988187N23133 1988 33 WP MM NOT_NAMED 1988-07-08 09:00:00 TS 22.4999 122.978 main 177 177 __P___________ -1 22.4999 122.978 1 29 1000 0 0
1988187N23133 1988 33 WP MM NOT_NAMED 1988-07-08 12:00:00 TS 22.5000 123.000 main 177 177 __O___________ -1 22.5000 123.000 1 29 1000 1 191
1988187N23133 1988 33 WP MM NOT_NAMED 1988-07-08 15:00:00 TS 22.4223 122.960 main 181 169 __P___________ -1 22.4223 122.960 1 29 1000 3 223
1988187N23133 1988 33 WP MM NOT_NAMED 1988-07-08 18:00:00 TS 22.3000 122.800 main 169 143 __O___________ -1 22.3000 122.800 1 29 1000 6 242
1988187N23133 1988 33 WP MM NOT_NAMED 1988-07-08 21:00:00 TS 22.1354 122.385 main 151 113 __P___________ -1 22.1354 122.385 1 29 1000 8 248
1988187N23133 1988 33 WP MM NOT_NAMED 1988-07-09 00:00:00 TS 22.0000 122.000 main 113 103 __O___________ -1 22.0000 122.000 1 29 1000 4 250
1988187N23133 1988 33 WP MM NOT_NAMED 1988-07-09 03:00:00 TS 21.9923 121.955 main 113 113 __P___________ -1 21.9923 121.955 1 29 1000 0 0
1988187N23133 1988 33 WP MM NOT_NAMED 1988-07-09 06:00:00 TS 22.0000 122.000 main 113 103 __O___________ -1 22.0000 122.000 1 29 1000 1 208
1988187N23133 1988 33 WP MM NOT_NAMED 1988-07-09 09:00:00 TS 21.9000 121.900 main 103 93 __P___________ -1 21.9000 121.900 1 29 1000 3 223
1988187N23133 1988 33 WP MM NOT_NAMED 1988-07-09 12:00:00 TS 21.8000 121.800 main 93 93 __O___________ -1 21.8000 121.800 1 29 1000 1 220
1988187N23133 1988 33 WP MM NOT_NAMED 1988-07-09 15:00:00 TS 21.8000 121.800 main 93 93 __P___________ -1 21.8000 121.800 1 29 1000 0 0
1988187N23133 1988 33 WP MM NOT_NAMED 1988-07-09 18:00:00 TS 21.8000 121.800 main 93 93 __O___________ -1 21.8000 121.800 1 29 1000 1 217
1988187N23133 1988 33 WP MM NOT_NAMED 1988-07-09 21:00:00 TS 21.7224 121.745 main 85 79 __P___________ -1 21.7224 121.745 1 26 1001 3 223
1988187N23133 1988 33 WP MM NOT_NAMED 1988-07-10 00:00:00 TS 21.6000 121.600 main 79 68 __O___________ -1 21.6000 121.600 1 23 1002 5 235
1988187N23133 1988 33 WP MM NOT_NAMED 1988-07-10 03:00:00 TS 21.4552 121.335 main 60 59 __P___________ -1 21.4552 121.335 1 23 1002 6 242
1988187N23133 1988 33 WP MM NOT_NAMED 1988-07-10 06:00:00 TS 21.3000 121.000 main 67 __O___________ -1 21.3000 121.000 1 23 1002 7 243

デジタル台風データ・検索

IBTrACS Databaseについて

本データベースは、米国NOAAが公開する1842年以降の世界の熱帯低気圧のベストトラックデータアーカイブInternational Best Track Archive for Climate Stewardship (IBTrACS)を、ウェブで閲覧しやすい形式に変換したものです。

最終更新日:2021-10-21